Time;durP1;ratioP1;P1;durP2;ratioP2;P2;SDS_P1;SDS_P2;PMS_P1;PMS_P2;Temp;Humidity;BMP_temperature;BMP_pressure;BME280_temperature;BME280_humidity;BME280_pressure;Samples;Min_cycle;Max_cycle;Signal;HPM_P1;HPM_P2
2021/10/11 00:00:53;;;;;;;54.30;28.00;;;;;;;3.65;47.32;99727.76;113374;1193;96402;-70
2021/10/11 00:03:22;;;;;;;58.50;29.40;;;;;;;3.62;47.40;99728.23;113281;1196;112642;-70
2021/10/11 00:05:49;;;;;;;56.10;28.20;;;;;;;3.57;47.26;99725.56;113388;1193;99015;-70
2021/10/11 00:08:17;;;;;;;56.30;28.20;;;;;;;3.53;47.30;99729.75;113262;1195;107511;-72
2021/10/11 00:10:45;;;;;;;57.80;27.70;;;;;;;3.49;47.40;99729.68;113387;1193;99039;-70
2021/10/11 00:13:13;;;;;;;56.90;28.50;;;;;;;3.47;47.37;99731.86;113421;1193;99616;-71
2021/10/11 00:15:41;;;;;;;53.90;28.40;;;;;;;3.44;47.41;99728.83;113431;1193;112501;-71
2021/10/11 00:18:09;;;;;;;52.50;26.40;;;;;;;3.40;47.30;99732.63;113353;1195;98977;-71
2021/10/11 00:20:39;;;;;;;56.40;28.60;;;;;;;3.36;47.56;99733.09;113426;1193;107541;-70
2021/10/11 00:23:10;;;;;;;51.70;27.80;;;;;;;3.33;47.64;99728.45;113440;1193;96412;-71
2021/10/11 00:25:38;;;;;;;51.40;26.00;;;;;;;3.29;47.63;99728.75;113382;1193;99029;-72
2021/10/11 00:28:06;;;;;;;54.70;27.40;;;;;;;3.26;47.72;99720.79;113359;1193;111264;-70
2021/10/11 00:30:36;;;;;;;50.60;27.30;;;;;;;3.22;47.74;99718.11;113447;1193;97850;-71
2021/10/11 00:33:05;;;;;;;53.50;25.80;;;;;;;3.19;47.72;99718.58;113336;1193;105359;-72
2021/10/11 00:35:33;;;;;;;52.00;26.80;;;;;;;3.15;47.56;99716.05;113375;1193;99700;-72
2021/10/11 00:38:01;;;;;;;50.30;25.80;;;;;;;3.13;47.88;99723.14;113226;1195;98264;-69
2021/10/11 00:40:30;;;;;;;50.90;26.70;;;;;;;3.10;47.77;99721.81;113304;1193;112532;-70
2021/10/11 00:42:58;;;;;;;51.40;25.90;;;;;;;3.08;48.14;99717.14;113372;1193;99018;-72
2021/10/11 00:45:26;;;;;;;55.20;25.50;;;;;;;3.06;47.91;99721.23;113324;1193;107127;-70
2021/10/11 00:47:54;;;;;;;57.80;27.20;;;;;;;3.03;47.97;99720.29;113386;1193;97464;-71
2021/10/11 00:50:22;;;;;;;50.60;26.00;;;;;;;2.99;48.14;99714.27;113395;1193;99017;-71
2021/10/11 00:52:50;;;;;;;55.90;26.30;;;;;;;2.96;48.16;99711.55;113392;1193;113895;-69
2021/10/11 00:55:19;;;;;;;52.20;24.20;;;;;;;2.94;48.12;99710.58;113316;1195;99593;-70
2021/10/11 00:57:47;;;;;;;51.60;25.50;;;;;;;2.90;48.22;99707.36;113371;1193;107554;-72
2021/10/11 01:00:14;;;;;;;49.70;24.20;;;;;;;2.88;48.20;99701.29;113249;1195;99068;-70
2021/10/11 01:02:42;;;;;;;53.20;26.50;;;;;;;2.86;48.22;99698.20;113182;1195;98948;-71
2021/10/11 01:05:10;;;;;;;51.20;28.00;;;;;;;2.83;48.35;99700.58;113308;1193;112481;-70
2021/10/11 01:07:38;;;;;;;52.00;26.60;;;;;;;2.79;48.45;99696.32;113402;1193;97850;-70
2021/10/11 01:10:06;;;;;;;53.60;26.20;;;;;;;2.77;48.54;99693.05;113244;1193;107530;-68
2021/10/11 01:12:34;;;;;;;49.70;25.20;;;;;;;2.76;48.43;99689.93;113375;1193;96385;-68
2021/10/11 01:15:04;;;;;;;52.50;25.60;;;;;;;2.74;48.71;99689.64;113423;1193;96349;-70
2021/10/11 01:17:31;;;;;;;51.80;25.10;;;;;;;2.72;48.80;99692.16;113433;1193;111558;-70
2021/10/11 01:19:59;;;;;;;51.70;24.90;;;;;;;2.70;48.46;99694.84;113327;1193;99008;-70
2021/10/11 01:22:53;;;;;;;47.40;24.80;;;;;;;2.70;49.01;99692.23;113202;1193;108578;-69
2021/10/11 01:25:21;;;;;;;51.20;26.40;;;;;;;2.67;48.94;99686.17;113134;1195;99046;-71
2021/10/11 01:27:50;;;;;;;49.70;25.20;;;;;;;2.64;48.88;99682.58;113290;1195;100155;-72
2021/10/11 01:30:19;;;;;;;49.80;24.20;;;;;;;2.64;49.02;99675.77;113320;1193;112657;-70
2021/10/11 01:32:47;;;;;;;48.90;24.50;;;;;;;2.61;48.97;99673.73;113192;1193;98895;-69
2021/10/11 01:35:16;;;;;;;46.40;23.60;;;;;;;2.59;49.15;99668.04;113412;1193;107960;-69
2021/10/11 01:37:47;;;;;;;45.80;24.50;;;;;;;2.55;48.90;99659.02;113412;1193;99005;-70
2021/10/11 01:40:17;;;;;;;49.70;25.00;;;;;;;2.54;49.39;99652.42;113364;1193;99050;-71
2021/10/11 01:42:45;;;;;;;50.70;25.00;;;;;;;2.51;49.44;99648.13;113214;1195;112495;-72
2021/10/11 01:45:13;;;;;;;48.80;24.30;;;;;;;2.48;49.40;99653.29;113292;1195;98888;-72
2021/10/11 01:47:41;;;;;;;45.00;23.20;;;;;;;2.45;49.42;99651.27;113339;1193;107502;-71
2021/10/11 01:50:09;;;;;;;50.00;23.00;;;;;;;2.44;49.34;99644.33;113369;1194;99045;-71
2021/10/11 01:52:39;;;;;;;58.70;26.70;;;;;;;2.43;49.03;99641.72;113269;1195;99018;-71
2021/10/11 01:55:08;;;;;;;49.10;24.10;;;;;;;2.40;49.39;99641.45;113446;1194;112532;-70
2021/10/11 01:57:36;;;;;;;45.50;22.40;;;;;;;2.38;49.62;99638.55;113311;1196;99097;-70
2021/10/11 02:00:07;;;;;;;46.10;23.00;;;;;;;2.36;49.84;99641.21;113273;1195;108296;-71
2021/10/11 02:02:36;;;;;;;49.90;22.80;;;;;;;2.34;49.87;99637.59;113294;1194;97782;-69
2021/10/11 02:05:06;;;;;;;49.20;23.90;;;;;;;2.33;49.70;99629.77;113090;1196;99004;-69
2021/10/11 02:07:34;;;;;;;47.10;24.20;;;;;;;2.31;49.60;99625.27;113280;1193;113279;-69
2021/10/11 02:10:05;;;;;;;52.30;24.10;;;;;;;2.29;49.93;99625.30;113181;1195;99037;-69
2021/10/11 02:12:33;;;;;;;46.50;23.10;;;;;;;2.29;49.75;99625.15;113490;1194;107500;-67
2021/10/11 02:15:02;;;;;;;54.90;26.70;;;;;;;2.28;49.55;99622.55;113428;1193;99024;-69
2021/10/11 02:17:30;;;;;;;46.80;24.50;;;;;;;2.25;49.43;99617.73;113450;1193;99697;-70
2021/10/11 02:19:58;;;;;;;47.00;24.00;;;;;;;2.24;49.89;99613.94;113341;1193;112732;-70
2021/10/11 02:22:26;;;;;;;60.10;29.80;;;;;;;2.22;49.68;99610.83;113275;1195;98953;-69
2021/10/11 02:24:54;;;;;;;63.70;33.40;;;;;;;2.22;49.45;99605.94;113136;1195;109012;-70
2021/10/11 02:27:22;;;;;;;63.90;31.30;;;;;;;2.17;49.85;99602.25;113399;1193;99018;-70
2021/10/11 02:29:50;;;;;;;52.80;26.50;;;;;;;2.15;50.14;99601.59;113199;1195;100270;-71
2021/10/11 02:32:18;;;;;;;56.20;30.20;;;;;;;2.13;50.03;99601.30;113391;1193;113112;-70
2021/10/11 02:34:46;;;;;;;61.40;30.70;;;;;;;2.13;50.03;99603.91;113364;1193;97528;-68
2021/10/11 02:37:14;;;;;;;51.70;27.30;;;;;;;2.14;50.27;99604.79;113352;1193;108125;-70
2021/10/11 02:39:42;;;;;;;52.50;27.40;;;;;;;2.12;50.29;99600.63;113422;1193;98968;-70
2021/10/11 02:42:11;;;;;;;84.10;41.20;;;;;;;2.12;49.98;99600.65;113320;1195;99013;-69
2021/10/11 02:44:39;;;;;;;79.70;40.70;;;;;;;2.01;50.59;99597.10;113255;1194;113713;-70
2021/10/11 02:47:07;;;;;;;84.70;42.60;;;;;;;1.85;51.72;99593.35;113429;1193;99003;-70
2021/10/11 02:49:35;;;;;;;81.70;44.10;;;;;;;1.68;51.66;99591.90;113412;1193;107521;-70
2021/10/11 02:52:03;;;;;;;76.90;40.60;;;;;;;1.55;51.84;99589.45;113387;1193;99026;-70
2021/10/11 02:54:32;;;;;;;78.60;42.00;;;;;;;1.45;52.55;99588.48;113395;1193;96389;-70
2021/10/11 02:57:00;;;;;;;85.60;43.00;;;;;;;1.35;53.22;99590.34;113373;1193;112587;-69
2021/10/11 02:59:28;;;;;;;83.70;42.60;;;;;;;1.23;53.16;99585.77;113262;1195;99055;-72
2021/10/11 03:01:55;;;;;;;81.50;41.10;;;;;;;1.18;54.13;99586.06;113419;1193;107507;-71
2021/10/11 03:04:23;;;;;;;77.90;40.70;;;;;;;1.08;54.89;99581.25;113384;1194;99118;-70
2021/10/11 03:06:51;;;;;;;83.10;42.40;;;;;;;0.96;55.52;99578.23;113427;1193;96475;-70
2021/10/11 03:09:19;;;;;;;71.80;39.00;;;;;;;0.85;54.78;99574.30;113426;1193;113168;-72
2021/10/11 03:11:47;;;;;;;79.20;39.60;;;;;;;0.84;54.33;99575.90;113414;1193;98855;-70
2021/10/11 03:14:15;;;;;;;79.80;39.00;;;;;;;0.84;53.88;99571.17;113214;1193;107452;-71
2021/10/11 03:16:42;;;;;;;64.60;33.60;;;;;;;0.88;54.16;99574.40;113249;1187;98977;-69
2021/10/11 03:19:10;;;;;;;66.50;33.30;;;;;;;0.95;54.27;99573.02;113277;1195;99001;-70
2021/10/11 03:21:38;;;;;;;63.20;33.50;;;;;;;0.99;54.35;99568.20;113370;1193;112207;-69
2021/10/11 03:24:06;;;;;;;65.70;34.70;;;;;;;1.00;54.27;99565.23;113263;1194;98957;-70
2021/10/11 03:26:34;;;;;;;67.90;35.60;;;;;;;1.01;54.37;99565.71;113082;1195;107365;-70
2021/10/11 03:29:02;;;;;;;66.10;34.80;;;;;;;1.00;54.11;99564.31;113211;1195;96399;-70
2021/10/11 03:31:30;;;;;;;68.90;32.80;;;;;;;1.03;54.03;99563.55;113267;1195;96398;-71
2021/10/11 03:33:59;;;;;;;64.20;31.30;;;;;;;1.06;54.24;99562.77;113240;1195;113051;-70
2021/10/11 03:36:27;;;;;;;60.10;30.00;;;;;;;1.08;54.32;99558.53;113196;1195;96429;-69
2021/10/11 03:38:54;;;;;;;58.10;30.50;;;;;;;1.13;54.10;99556.67;113318;1193;108137;-70
2021/10/11 03:41:22;;;;;;;59.10;29.50;;;;;;;1.17;54.13;99557.25;113233;1195;99012;-68
2021/10/11 03:43:50;;;;;;;50.10;24.70;;;;;;;1.19;54.27;99555.98;113132;1194;97891;-69
2021/10/11 03:46:18;;;;;;;51.10;26.20;;;;;;;1.24;54.56;99552.54;113250;1195;112113;-69
2021/10/11 03:48:46;;;;;;;56.40;26.90;;;;;;;1.29;54.41;99552.06;113377;1193;98910;-70
2021/10/11 03:51:14;;;;;;;58.80;28.40;;;;;;;1.32;54.56;99550.74;113407;1193;108242;-70
2021/10/11 03:53:41;;;;;;;58.00;28.20;;;;;;;1.35;54.56;99554.16;113367;1193;99023;-69
2021/10/11 03:56:09;;;;;;;53.00;27.90;;;;;;;1.40;54.43;99557.52;113432;1193;99042;-69
2021/10/11 03:58:37;;;;;;;53.50;26.30;;;;;;;1.44;54.60;99553.58;113254;1195;113118;-69
2021/10/11 04:01:05;;;;;;;48.60;22.10;;;;;;;1.48;54.68;99556.26;113397;1193;99604;-69
2021/10/11 04:03:33;;;;;;;44.80;21.80;;;;;;;1.50;54.79;99554.79;113197;1195;106855;-69
2021/10/11 04:06:02;;;;;;;45.60;22.20;;;;;;;1.45;55.42;99556.00;113223;1195;96379;-68
2021/10/11 04:08:35;;;;;;;42.40;19.90;;;;;;;1.37;55.36;99555.14;113309;1194;99023;-69
2021/10/11 04:13:38;;;;;;;43.70;20.60;;;;;;;1.28;55.65;99553.66;113322;1193;98849;-69
2021/10/11 04:16:07;;;;;;;39.60;18.80;;;;;;;1.24;55.58;99556.20;113800;1193;107588;-68
2021/10/11 04:18:35;;;;;;;43.90;21.40;;;;;;;1.19;56.02;99561.39;113296;1186;96371;-69
2021/10/11 04:21:04;;;;;;;41.10;19.20;;;;;;;1.19;55.51;99559.31;113328;1193;98901;-68
2021/10/11 04:23:32;;;;;;;43.90;21.40;;;;;;;1.20;55.76;99561.38;113324;1193;112220;-69
2021/10/11 04:26:00;;;;;;;46.80;22.50;;;;;;;1.20;55.72;99559.10;113346;1193;99004;-69
2021/10/11 04:28:28;;;;;;;43.30;21.80;;;;;;;1.25;55.69;99559.33;113126;1197;107238;-70
2021/10/11 04:30:56;;;;;;;47.30;22.70;;;;;;;1.29;55.85;99556.05;113342;1194;98991;-70
2021/10/11 04:33:24;;;;;;;53.30;23.40;;;;;;;1.35;56.04;99552.95;113294;1193;98913;-71
2021/10/11 04:35:53;;;;;;;43.90;22.50;;;;;;;1.39;55.89;99552.32;113234;1195;111548;-69
2021/10/11 04:38:20;;;;;;;45.70;22.50;;;;;;;1.43;55.96;99554.47;113232;1195;99623;-69
2021/10/11 04:40:48;;;;;;;45.50;21.70;;;;;;;1.46;56.09;99556.65;113365;1193;107859;-67
2021/10/11 04:43:17;;;;;;;47.10;22.90;;;;;;;1.49;55.92;99557.09;113317;1193;98917;-70
2021/10/11 04:45:45;;;;;;;51.80;24.40;;;;;;;1.53;55.86;99556.84;113274;1195;98928;-68
2021/10/11 04:48:13;;;;;;;48.20;25.00;;;;;;;1.55;55.87;99561.13;113285;1195;112597;-71
2021/10/11 04:50:41;;;;;;;47.30;23.80;;;;;;;1.54;56.11;99563.62;113408;1193;98941;-70
2021/10/11 04:53:09;;;;;;;52.50;25.30;;;;;;;1.53;55.93;99561.71;113207;1195;107325;-70
2021/10/11 04:55:37;;;;;;;50.20;25.70;;;;;;;1.55;56.04;99559.91;113202;1195;99011;-71
2021/10/11 04:58:04;;;;;;;58.70;32.00;;;;;;;1.57;56.07;99558.45;113166;1195;99034;-71
2021/10/11 05:00:36;;;;;;;63.70;33.50;;;;;;;1.60;55.90;99554.17;113225;1195;112535;-70
2021/10/11 05:03:05;;;;;;;65.40;32.40;;;;;;;1.65;55.98;99554.23;113402;1193;98973;-71
2021/10/11 05:05:33;;;;;;;61.40;31.90;;;;;;;1.68;56.24;99554.13;113346;1193;107521;-72
2021/10/11 05:08:02;;;;;;;63.40;32.70;;;;;;;1.72;56.32;99552.27;113345;1193;98986;-71
2021/10/11 05:10:33;;;;;;;66.30;32.00;;;;;;;1.75;56.26;99547.11;113442;1193;98934;-69
2021/10/11 05:13:01;;;;;;;61.60;32.60;;;;;;;1.77;56.05;99541.11;113249;1195;111632;-71
2021/10/11 05:15:30;;;;;;;59.20;31.90;;;;;;;1.81;56.24;99541.55;113385;1193;99014;-73
2021/10/11 05:17:57;;;;;;;62.10;30.80;;;;;;;1.83;56.14;99539.73;113336;1193;107533;-71
2021/10/11 05:20:26;;;;;;;60.00;29.40;;;;;;;1.86;56.39;99538.05;113401;1193;96459;-70
2021/10/11 05:22:55;;;;;;;61.30;30.40;;;;;;;1.90;56.20;99538.11;113452;1193;96445;-70
2021/10/11 05:25:30;;;;;;;58.90;31.90;;;;;;;1.92;56.38;99539.09;113440;1193;112947;-70
2021/10/11 05:27:57;;;;;;;57.10;30.70;;;;;;;1.91;56.73;99540.88;113268;1195;98938;-71
2021/10/11 05:30:25;;;;;;;58.00;30.60;;;;;;;1.87;56.46;99536.98;113388;1193;107524;-70
2021/10/11 05:32:53;;;;;;;59.60;31.20;;;;;;;1.88;56.42;99530.84;113379;1193;98916;-71
2021/10/11 05:35:21;;;;;;;62.70;31.80;;;;;;;1.94;56.60;99531.00;113488;1193;96277;-71
2021/10/11 05:37:49;;;;;;;61.40;31.20;;;;;;;1.99;56.15;99532.79;113440;1193;112479;-72
2021/10/11 05:40:17;;;;;;;53.90;28.90;;;;;;;2.01;56.42;99533.25;113442;1193;98198;-71
2021/10/11 05:42:45;;;;;;;55.60;28.80;;;;;;;2.06;56.67;99529.23;113402;1194;107657;-70
2021/10/11 05:45:12;;;;;;;55.80;29.20;;;;;;;2.12;56.39;99527.67;113351;1193;96486;-70
2021/10/11 05:47:40;;;;;;;54.00;25.30;;;;;;;2.10;56.48;99525.11;113440;1193;98903;-70
2021/10/11 05:50:09;;;;;;;55.80;28.30;;;;;;;2.07;56.34;99526.23;113215;1196;112648;-73
2021/10/11 05:52:37;;;;;;;57.00;28.20;;;;;;;2.10;56.36;99528.07;113247;1195;98999;-71
2021/10/11 05:55:08;;;;;;;58.70;29.00;;;;;;;2.13;56.83;99527.64;113205;1195;107533;-71
2021/10/11 05:57:37;;;;;;;58.50;29.20;;;;;;;2.20;56.77;99525.30;113186;1195;98984;-70
2021/10/11 06:00:08;;;;;;;59.00;30.20;;;;;;;2.29;56.96;99523.12;113207;1195;98917;-71
2021/10/11 06:02:37;;;;;;;54.30;27.50;;;;;;;2.38;56.83;99524.77;113211;1194;112423;-71
2021/10/11 06:05:06;;;;;;;53.90;27.90;;;;;;;2.40;57.34;99523.49;113307;1193;99100;-71
2021/10/11 06:07:34;;;;;;;58.80;29.20;;;;;;;2.36;57.98;99528.68;113384;1193;107422;-72
2021/10/11 06:10:03;;;;;;;55.90;29.00;;;;;;;2.33;57.81;99524.57;113326;1193;98979;-72
2021/10/11 06:12:31;;;;;;;60.60;29.10;;;;;;;2.36;58.24;99523.77;113423;1193;98341;-71
2021/10/11 06:15:01;;;;;;;55.10;29.50;;;;;;;2.36;58.13;99521.48;113169;1193;112216;-70
2021/10/11 06:17:29;;;;;;;51.00;27.30;;;;;;;2.37;58.12;99523.73;113448;1193;96478;-71
2021/10/11 06:19:58;;;;;;;58.90;31.10;;;;;;;2.42;58.06;99522.90;113404;1193;107167;-69
2021/10/11 06:22:27;;;;;;;48.80;27.00;;;;;;;2.48;58.20;99518.83;113294;1193;99009;-71
2021/10/11 06:24:56;;;;;;;56.00;32.00;;;;;;;2.54;58.89;99517.27;113349;1193;98946;-71
2021/10/11 06:27:27;;;;;;;58.50;33.30;;;;;;;2.56;58.95;99521.21;113365;1193;112545;-70
2021/10/11 06:29:57;;;;;;;60.60;32.60;;;;;;;2.59;59.74;99521.46;113149;1195;99003;-71
2021/10/11 06:32:25;;;;;;;54.60;31.00;;;;;;;2.60;59.18;99522.48;113249;1194;107570;-70
2021/10/11 06:34:53;;;;;;;60.20;33.10;;;;;;;2.65;60.01;99524.95;113342;1193;99628;-71
2021/10/11 06:37:22;;;;;;;53.50;28.90;;;;;;;2.67;60.40;99525.90;113390;1193;96400;-71
2021/10/11 06:39:50;;;;;;;63.40;30.90;;;;;;;2.69;60.50;99524.83;113346;1194;112569;-70
2021/10/11 06:42:18;;;;;;;58.40;30.90;;;;;;;2.74;59.83;99522.73;113333;1193;98891;-73
2021/10/11 06:44:47;;;;;;;56.90;31.10;;;;;;;2.84;60.43;99519.07;113373;1193;107621;-72
2021/10/11 06:47:16;;;;;;;60.60;32.20;;;;;;;2.93;59.95;99518.05;113332;1186;98932;-70
2021/10/11 06:49:46;;;;;;;61.70;32.20;;;;;;;3.04;60.16;99519.27;113330;1193;98996;-70
2021/10/11 06:52:15;;;;;;;64.30;32.20;;;;;;;3.15;59.76;99516.61;113157;1195;112558;-71
2021/10/11 06:54:43;;;;;;;61.70;31.70;;;;;;;3.29;60.02;99512.79;113413;1193;98885;-70
2021/10/11 06:57:11;;;;;;;60.10;34.20;;;;;;;3.48;60.24;99515.30;113354;1193;106364;-70
2021/10/11 06:59:39;;;;;;;61.40;35.40;;;;;;;3.66;60.06;99517.45;113135;1193;98297;-70
2021/10/11 07:02:08;;;;;;;62.70;33.60;;;;;;;3.84;60.23;99514.69;113239;1186;98875;-70
2021/10/11 07:04:42;;;;;;;66.00;32.90;;;;;;;4.03;60.18;99513.60;113421;1193;112159;-72
2021/10/11 07:07:10;;;;;;;59.40;31.80;;;;;;;4.20;60.05;99513.64;113412;1193;98911;-70
2021/10/11 07:09:39;;;;;;;61.00;33.20;;;;;;;4.38;60.06;99510.33;113262;1195;108146;-72
2021/10/11 07:12:06;;;;;;;57.30;29.40;;;;;;;4.54;60.07;99508.44;113274;1195;98999;-71
2021/10/11 07:14:34;;;;;;;56.30;29.70;;;;;;;4.68;59.89;99511.36;113251;1195;97357;-71
2021/10/11 07:17:02;;;;;;;53.80;29.20;;;;;;;4.81;59.98;99515.59;113291;1195;112123;-70
2021/10/11 07:19:30;;;;;;;56.90;28.40;;;;;;;4.95;59.88;99513.23;113190;1195;97858;-71
2021/10/11 07:21:58;;;;;;;53.20;28.40;;;;;;;5.10;59.89;99504.17;113132;1195;108013;-70
2021/10/11 07:24:26;;;;;;;54.70;28.90;;;;;;;5.23;59.86;99500.45;113264;1194;98902;-70
2021/10/11 07:26:53;;;;;;;53.40;29.50;;;;;;;5.37;60.03;99497.89;113219;1195;99017;-72
2021/10/11 07:29:21;;;;;;;50.00;28.20;;;;;;;5.52;60.10;99502.70;113227;1195;112396;-71
2021/10/11 07:31:49;;;;;;;55.70;29.00;;;;;;;5.68;59.93;99497.42;113189;1195;99013;-72
2021/10/11 07:34:18;;;;;;;51.80;27.60;;;;;;;5.80;60.05;99497.38;113341;1193;107193;-70
2021/10/11 07:36:46;;;;;;;51.00;26.60;;;;;;;5.93;59.89;99495.38;113423;1195;99008;-71
2021/10/11 07:39:14;;;;;;;51.50;27.50;;;;;;;6.05;59.90;99493.64;113198;1194;100086;-71
2021/10/11 07:41:42;;;;;;;53.20;27.40;;;;;;;6.17;59.65;99493.42;113297;1195;112600;-69
2021/10/11 07:44:10;;;;;;;48.50;28.60;;;;;;;6.28;59.85;99495.00;113307;1195;99629;-71
2021/10/11 07:46:39;;;;;;;52.40;28.80;;;;;;;6.40;59.77;99495.48;113087;1195;107551;-70
2021/10/11 07:49:27;;;;;;;46.80;26.40;;;;;;;6.55;59.92;99490.54;113073;1195;97860;-70
2021/10/11 07:51:55;;;;;;;52.90;26.60;;;;;;;6.65;59.93;99483.36;113183;1195;98982;-71
2021/10/11 07:54:23;;;;;;;48.90;26.70;;;;;;;6.76;59.98;99478.08;113227;1193;112343;-72
2021/10/11 07:56:51;;;;;;;51.20;27.50;;;;;;;6.86;59.89;99473.33;113184;1194;98940;-71
2021/10/11 07:59:21;;;;;;;55.00;30.90;;;;;;;6.93;59.68;99463.98;114006;1186;107512;-71
2021/10/11 08:01:50;;;;;;;115.00;65.40;;;;;;;7.02;59.80;99458.05;113137;1193;96435;-71
2021/10/11 08:04:18;;;;;;;56.40;31.60;;;;;;;7.14;59.83;99456.73;113348;1179;96714;-73
2021/10/11 08:06:46;;;;;;;50.10;28.40;;;;;;;7.27;59.90;99457.83;114082;1193;112396;-72
2021/10/11 08:09:14;;;;;;;50.90;28.30;;;;;;;7.40;59.66;99457.64;113369;1193;98909;-72
2021/10/11 08:11:46;;;;;;;48.70;26.80;;;;;;;7.45;59.45;99449.46;112905;1195;107504;-70
2021/10/11 08:14:17;;;;;;;49.40;26.40;;;;;;;7.51;59.80;99452.51;113233;1195;99049;-70
2021/10/11 08:16:45;;;;;;;42.60;24.30;;;;;;;7.58;59.61;99452.61;113267;1194;98921;-71
2021/10/11 08:19:17;;;;;;;50.00;26.40;;;;;;;7.65;59.56;99453.19;113132;1195;112480;-72
2021/10/11 08:21:45;;;;;;;48.60;26.00;;;;;;;7.67;59.68;99455.85;113413;1194;99594;-73
2021/10/11 08:24:14;;;;;;;49.40;24.60;;;;;;;7.71;59.61;99445.60;113438;1193;107479;-72
2021/10/11 08:26:45;;;;;;;44.20;24.70;;;;;;;7.77;59.65;99444.22;113295;1187;99011;-72
2021/10/11 08:29:13;;;;;;;45.10;24.60;;;;;;;7.89;59.74;99441.45;113423;1186;96303;-70
2021/10/11 08:31:41;;;;;;;52.10;27.90;;;;;;;8.10;59.74;99437.77;113225;1195;112517;-70
2021/10/11 08:34:09;;;;;;;43.30;25.00;;;;;;;8.40;59.60;99439.64;113091;1195;99029;-71
2021/10/11 08:36:37;;;;;;;46.60;24.60;;;;;;;8.77;59.65;99433.83;113253;1193;108222;-69
2021/10/11 08:39:08;;;;;;;46.30;23.70;;;;;;;9.14;59.53;99428.42;113310;1193;99007;-70
2021/10/11 08:41:36;;;;;;;42.10;23.70;;;;;;;9.46;59.33;99424.02;113280;1195;99030;-71
2021/10/11 08:44:05;;;;;;;43.70;23.20;;;;;;;9.81;59.45;99424.79;114101;1195;112596;-70
2021/10/11 08:46:37;;;;;;;45.90;24.50;;;;;;;10.26;59.40;99425.68;113077;1195;98940;-70
2021/10/11 08:49:07;;;;;;;39.10;21.00;;;;;;;10.60;59.33;99422.39;113340;1193;107609;-72
2021/10/11 08:51:38;;;;;;;37.30;19.60;;;;;;;10.98;59.59;99419.80;113340;1194;98990;-70
2021/10/11 08:54:10;;;;;;;38.60;20.00;;;;;;;11.39;59.70;99427.14;113672;1193;96475;-70
2021/10/11 08:56:38;;;;;;;36.60;20.00;;;;;;;11.80;59.40;99428.81;113356;1194;112545;-70
2021/10/11 08:59:05;;;;;;;36.50;20.10;;;;;;;12.18;59.30;99430.74;113266;1193;99638;-70
2021/10/11 09:01:37;;;;;;;36.40;19.70;;;;;;;12.41;58.94;99428.74;113161;1194;108203;-71
2021/10/11 09:04:20;;;;;;;36.50;19.20;;;;;;;12.57;58.82;99425.79;113252;1193;99004;-71
2021/10/11 09:07:10;;;;;;;40.30;21.50;;;;;;;12.68;58.74;99421.16;113363;1194;99016;-70
2021/10/11 09:09:47;;;;;;;39.00;19.00;;;;;;;12.86;58.78;99418.94;113280;1193;112387;-72
2021/10/11 09:12:29;;;;;;;43.00;20.90;;;;;;;13.15;58.94;99417.84;113330;1193;96386;-72
2021/10/11 09:15:13;;;;;;;38.20;20.60;;;;;;;13.36;58.91;99419.94;113329;1193;107729;-71
2021/10/11 09:17:54;;;;;;;37.00;20.30;;;;;;;13.63;58.88;99419.23;113297;1193;98891;-71
2021/10/11 09:20:29;;;;;;;36.60;20.80;;;;;;;13.90;58.36;99409.59;113308;1194;97822;-71
2021/10/11 09:23:02;;;;;;;36.90;20.00;;;;;;;14.27;58.46;99410.92;113103;1194;112529;-74
2021/10/11 09:25:40;;;;;;;36.90;21.00;;;;;;;14.69;58.33;99407.30;113360;1195;98266;-71
2021/10/11 09:28:08;;;;;;;38.30;20.10;;;;;;;14.98;58.17;99405.19;113324;1194;107665;-72
2021/10/11 09:30:43;;;;;;;36.10;19.20;;;;;;;15.03;57.85;99408.52;113315;1193;98903;-70
2021/10/11 09:33:23;;;;;;;36.70;21.20;;;;;;;14.84;57.39;99406.20;113432;1193;96515;-71
2021/10/11 09:35:54;;;;;;;35.30;20.40;;;;;;;14.50;56.94;99404.19;113390;1193;112598;-71
2021/10/11 09:38:31;;;;;;;40.50;20.40;;;;;;;14.39;57.07;99403.66;113312;1195;98976;-70
2021/10/11 09:41:00;;;;;;;39.80;19.70;;;;;;;14.41;57.20;99398.69;113096;1187;107504;-72
2021/10/11 09:43:30;;;;;;;38.80;19.80;;;;;;;14.46;57.12;99396.48;113064;1193;97121;-72
2021/10/11 09:46:10;;;;;;;38.30;21.70;;;;;;;14.54;57.06;99395.30;113158;1194;98911;-72
2021/10/11 09:48:56;;;;;;;36.70;19.70;;;;;;;14.54;57.07;99389.91;113238;1195;112525;-73
2021/10/11 09:51:28;;;;;;;34.20;18.30;;;;;;;14.61;57.24;99386.11;113190;1195;96378;-72
2021/10/11 09:53:56;;;;;;;34.90;18.70;;;;;;;14.64;57.01;99385.37;113429;1193;106869;-71
2021/10/11 09:56:26;;;;;;;37.10;20.70;;;;;;;14.59;56.70;99382.55;113292;1195;99018;-72
2021/10/11 09:58:57;;;;;;;39.00;19.50;;;;;;;14.43;56.21;99382.34;113320;1193;96376;-73
2021/10/11 10:01:33;;;;;;;36.90;19.40;;;;;;;14.30;56.15;99377.09;113436;1193;112323;-72
2021/10/11 10:04:06;;;;;;;35.60;19.80;;;;;;;14.30;56.20;99373.18;113396;1193;99000;-72
2021/10/11 10:06:38;;;;;;;35.30;19.20;;;;;;;14.18;55.28;99373.23;113414;1193;107527;-74
2021/10/11 10:09:15;;;;;;;33.40;18.60;;;;;;;14.06;55.75;99372.64;113410;1193;98987;-72
2021/10/11 10:11:47;;;;;;;40.10;19.40;;;;;;;13.90;55.46;99373.03;113335;1193;98956;-72
2021/10/11 10:14:26;;;;;;;38.60;18.90;;;;;;;13.77;55.41;99376.64;113299;1193;112517;-73
2021/10/11 10:16:59;;;;;;;38.00;20.30;;;;;;;13.68;55.31;99370.52;113163;1195;99030;-72
2021/10/11 10:19:39;;;;;;;36.00;18.50;;;;;;;13.49;55.02;99370.11;113289;1193;107652;-73
2021/10/11 10:22:09;;;;;;;35.00;18.80;;;;;;;13.40;55.07;99367.58;113418;1194;99030;-74
2021/10/11 10:24:41;;;;;;;36.90;19.60;;;;;;;13.37;55.09;99369.39;113391;1193;97096;-72
2021/10/11 10:27:17;;;;;;;40.90;19.30;;;;;;;13.23;54.69;99367.35;113382;1193;110715;-72
2021/10/11 10:29:51;;;;;;;36.60;19.90;;;;;;;13.06;54.64;99363.46;113296;1193;97297;-73
2021/10/11 10:32:20;;;;;;;40.60;18.90;;;;;;;12.95;54.57;99363.98;113184;1202;106542;-72
2021/10/11 10:35:02;;;;;;;35.60;17.90;;;;;;;12.86;54.43;99356.50;113411;1193;99494;-72
2021/10/11 10:37:39;;;;;;;36.50;18.10;;;;;;;12.76;54.27;99354.55;113240;1193;97937;-72
2021/10/11 10:40:14;;;;;;;37.30;17.60;;;;;;;12.76;54.33;99350.33;113414;1193;113050;-72
2021/10/11 10:42:46;;;;;;;30.80;16.70;;;;;;;12.82;54.11;99351.62;113319;1193;97097;-73
2021/10/11 10:45:26;;;;;;;35.40;17.60;;;;;;;12.86;53.97;99350.11;113408;1193;107534;-72
2021/10/11 10:47:55;;;;;;;39.30;19.70;;;;;;;12.87;53.98;99347.50;113317;1193;99065;-71
2021/10/11 10:50:28;;;;;;;38.50;18.60;;;;;;;12.88;53.97;99345.09;113318;1193;96463;-72
2021/10/11 10:53:02;;;;;;;36.70;16.60;;;;;;;12.92;53.78;99345.01;113391;1193;113032;-70
2021/10/11 10:55:29;;;;;;;34.20;15.80;;;;;;;12.98;53.86;99331.86;113448;1193;99016;-71
2021/10/11 10:58:10;;;;;;;34.60;18.30;;;;;;;13.01;53.42;99333.09;113377;1193;109104;-72
2021/10/11 11:00:59;;;;;;;29.40;15.30;;;;;;;13.01;53.35;99328.65;113108;1195;99016;-72
2021/10/11 11:03:27;;;;;;;28.90;14.30;;;;;;;12.96;53.09;99324.55;113413;1193;99706;-72
2021/10/11 11:05:55;;;;;;;29.80;13.90;;;;;;;12.93;53.19;99322.31;113374;1193;111592;-72
2021/10/11 11:08:43;;;;;;;30.60;14.90;;;;;;;12.90;52.86;99321.12;113429;1193;98876;-72
2021/10/11 11:11:15;;;;;;;33.00;14.60;;;;;;;12.87;52.56;99317.06;113410;1193;107512;-72
2021/10/11 11:13:43;;;;;;;33.50;15.30;;;;;;;12.84;52.55;99315.85;113242;1195;98997;-71
2021/10/11 11:16:11;;;;;;;33.10;15.90;;;;;;;12.81;52.25;99314.71;113345;1194;98916;-73
2021/10/11 11:18:39;;;;;;;34.50;17.30;;;;;;;12.72;52.30;99315.05;113342;1193;111306;-73
2021/10/11 11:21:07;;;;;;;33.40;17.20;;;;;;;12.66;51.84;99309.42;113413;1193;97763;-72
2021/10/11 11:23:43;;;;;;;37.60;18.90;;;;;;;12.51;51.82;99309.71;113283;1193;107524;-71
2021/10/11 11:26:11;;;;;;;38.40;17.60;;;;;;;12.45;52.08;99305.16;113359;1193;98946;-74